Time;durP1;ratioP1;P1;durP2;ratioP2;P2;SDS_P1;SDS_P2;PMS_P1;PMS_P2;Temp;Humidity;BMP_temperature;BMP_pressure;BME280_temperature;BME280_humidity;BME280_pressure;Samples;Min_cycle;Max_cycle;Signal;HPM_P1;HPM_P2
2021/01/04 00:00:02;;;;;;;62.30;28.60;;;;;;;-2.09;88.20;94979.69;5073601;28;20207;-74
2021/01/04 00:02:56;;;;;;;65.03;30.17;;;;;;;-2.16;88.23;94979.22;5065781;28;20188;-74
2021/01/04 00:05:33;;;;;;;65.73;30.83;;;;;;;-2.13;88.30;94979.03;5072355;28;20183;-74
2021/01/04 00:08:41;;;;;;;60.40;29.57;;;;;;;-2.16;88.47;94976.66;5072399;28;20230;-73
2021/01/04 00:11:17;;;;;;;58.97;30.47;;;;;;;-2.18;88.96;94977.66;5069834;28;20180;-74
2021/01/04 00:14:20;;;;;;;59.70;28.30;;;;;;;-2.16;88.74;94976.66;5063135;28;20176;-74
2021/01/04 00:16:56;;;;;;;52.33;28.53;;;;;;;-2.19;88.68;94979.38;5066489;28;20202;-74
2021/01/04 00:19:24;;;;;;;52.90;27.90;;;;;;;-2.15;88.19;94968.13;5072123;28;20211;-74
2021/01/04 00:21:59;;;;;;;57.20;28.77;;;;;;;-2.17;88.84;94972.47;5069458;28;20188;-74
2021/01/04 00:24:34;;;;;;;63.57;30.70;;;;;;;-2.18;88.78;94975.13;5070476;28;20186;-74
2021/01/04 00:27:26;;;;;;;53.43;28.17;;;;;;;-2.12;89.01;94974.75;5072208;28;20203;-74
2021/01/04 00:30:01;;;;;;;62.57;29.17;;;;;;;-2.17;88.99;94967.41;5055205;28;20285;-74
2021/01/04 00:32:33;;;;;;;57.80;29.40;;;;;;;-2.06;88.72;94967.59;5053829;28;20187;-73
2021/01/04 00:35:07;;;;;;;54.37;28.13;;;;;;;-2.07;88.68;94963.44;5066749;28;20183;-74
2021/01/04 00:38:00;;;;;;;50.60;26.50;;;;;;;-1.97;88.30;94960.38;5071984;28;20203;-74
2021/01/04 00:40:57;;;;;;;56.87;28.10;;;;;;;-2.05;88.46;94965.88;5072592;28;20240;-74
2021/01/04 00:43:37;;;;;;;59.57;27.93;;;;;;;-2.03;88.24;94967.47;5069576;28;20188;-74
2021/01/04 00:46:02;;;;;;;50.33;25.33;;;;;;;-1.96;88.50;94962.00;5071641;28;20200;-74
2021/01/04 00:48:34;;;;;;;62.90;27.60;;;;;;;-2.03;88.18;94969.19;5072945;28;20189;-74
2021/01/04 00:51:18;;;;;;;57.60;26.97;;;;;;;-2.05;88.72;94968.44;5071650;28;20216;-74
2021/01/04 00:53:46;;;;;;;59.27;27.17;;;;;;;-2.07;88.83;94971.06;5069479;28;20176;-74
2021/01/04 00:56:45;;;;;;;61.07;27.57;;;;;;;-2.01;88.20;94980.09;5051857;28;20253;-74
2021/01/04 00:59:10;;;;;;;58.63;26.40;;;;;;;-1.99;88.47;94978.28;5036360;28;20600;-74
2021/01/04 01:02:02;;;;;;;56.67;27.57;;;;;;;-1.96;88.42;94979.81;5070280;28;20275;-74
2021/01/04 01:04:31;;;;;;;52.27;24.53;;;;;;;-1.94;88.57;94983.09;5052647;28;20203;-73
2021/01/04 01:07:15;;;;;;;52.37;24.70;;;;;;;-1.97;88.03;94980.72;5064678;28;20588;-74
2021/01/04 01:09:49;;;;;;;50.47;25.33;;;;;;;-1.98;88.19;94984.19;5033073;28;20281;-74
2021/01/04 01:12:36;;;;;;;56.33;26.00;;;;;;;-2.08;88.46;94994.88;5050241;28;20192;-74
2021/01/04 01:15:25;;;;;;;59.37;25.40;;;;;;;-2.00;88.22;94991.91;5034056;28;20189;-74
2021/01/04 01:18:29;;;;;;;60.83;25.27;;;;;;;-2.07;88.24;94985.50;5053151;28;20199;-74
2021/01/04 01:20:56;;;;;;;59.93;25.30;;;;;;;-2.05;88.54;94989.59;5053206;28;20212;-74
2021/01/04 01:23:24;;;;;;;55.70;25.70;;;;;;;-2.04;88.56;94998.88;5053209;28;20199;-74
2021/01/04 01:26:01;;;;;;;65.17;26.70;;;;;;;-2.08;88.89;94988.97;5051584;28;20829;-74
2021/01/04 01:28:51;;;;;;;53.77;23.90;;;;;;;-2.09;88.65;94989.88;5052672;28;20204;-74
2021/01/04 01:31:32;;;;;;;57.23;24.83;;;;;;;-2.09;88.62;94988.16;5069771;28;20181;-74
2021/01/04 01:34:12;;;;;;;54.73;25.77;;;;;;;-2.09;88.31;94990.69;5070357;28;20545;-74
2021/01/04 01:37:01;;;;;;;54.23;25.00;;;;;;;-2.04;88.64;94998.06;5068657;28;20227;-74
2021/01/04 01:39:31;;;;;;;53.03;23.07;;;;;;;-2.08;88.31;94999.13;5070361;28;20312;-74
2021/01/04 01:42:14;;;;;;;53.50;23.67;;;;;;;-2.08;88.35;94997.41;5053986;28;20667;-74
2021/01/04 01:44:52;;;;;;;54.03;24.03;;;;;;;-2.17;88.19;95002.19;5071902;28;20203;-74
2021/01/04 01:47:30;;;;;;;53.27;23.20;;;;;;;-2.14;88.52;95005.38;5051255;28;20570;-74
2021/01/04 01:50:06;;;;;;;52.47;22.13;;;;;;;-2.10;88.42;95006.84;5064819;28;20194;-74
2021/01/04 01:52:52;;;;;;;45.07;23.50;;;;;;;-2.05;87.85;95009.94;5070665;28;20183;-74
2021/01/04 01:55:29;;;;;;;53.67;23.53;;;;;;;-2.10;87.98;95004.31;5070625;28;20180;-74
2021/01/04 01:58:29;;;;;;;44.97;22.73;;;;;;;-2.06;88.47;95015.94;5067914;28;20215;-74
2021/01/04 02:01:21;;;;;;;56.80;22.87;;;;;;;-2.06;88.00;95005.78;5053587;28;20238;-74
2021/01/04 02:04:00;;;;;;;51.37;24.20;;;;;;;-2.04;88.12;95011.59;5071491;28;20187;-74
2021/01/04 02:06:36;;;;;;;45.10;22.90;;;;;;;-2.02;88.35;95007.25;5070414;28;20231;-74
2021/01/04 02:09:08;;;;;;;57.20;22.63;;;;;;;-1.96;87.41;94998.44;5064859;28;20193;-73
2021/01/04 02:11:48;;;;;;;62.67;25.87;;;;;;;-2.08;87.54;95001.69;5053159;28;20272;-74
2021/01/04 02:14:19;;;;;;;69.53;27.10;;;;;;;-2.12;88.23;94997.66;5070374;28;20195;-74
2021/01/04 02:17:03;;;;;;;72.03;26.20;;;;;;;-2.15;88.19;95000.38;5070118;28;20219;-74
2021/01/04 02:19:46;;;;;;;59.60;26.53;;;;;;;-2.17;88.71;94995.38;5067543;28;20207;-74
2021/01/04 02:22:29;;;;;;;58.83;25.27;;;;;;;-2.13;88.31;94998.56;5071371;28;20191;-74
2021/01/04 02:24:54;;;;;;;56.80;27.27;;;;;;;-2.09;88.27;95000.03;5071521;28;20652;-74
2021/01/04 02:27:30;;;;;;;61.47;27.77;;;;;;;-2.06;88.24;94999.88;5053469;28;20215;-74
2021/01/04 02:29:55;;;;;;;62.10;26.60;;;;;;;-2.05;88.13;94994.69;5067594;28;22138;-74
2021/01/04 02:32:21;;;;;;;69.17;28.10;;;;;;;-2.02;88.44;95001.34;5068528;28;20223;-74
2021/01/04 02:34:51;;;;;;;61.63;27.23;;;;;;;-1.95;87.68;95000.09;5053247;28;20184;-74
2021/01/04 02:37:18;;;;;;;66.33;27.83;;;;;;;-2.04;88.49;94996.31;5069976;28;20351;-74
2021/01/04 02:39:59;;;;;;;58.77;26.67;;;;;;;-2.03;88.68;94998.00;5053037;28;20278;-74
2021/01/04 02:42:34;;;;;;;68.13;29.90;;;;;;;-2.07;88.38;94988.88;5066527;28;20207;-74
2021/01/04 02:45:04;;;;;;;71.40;30.57;;;;;;;-2.07;88.35;94990.59;5071437;28;20541;-75
2021/01/04 02:47:53;;;;;;;96.87;29.97;;;;;;;-2.05;88.24;94989.59;5069946;28;20211;-74
2021/01/04 02:50:33;;;;;;;132.03;32.67;;;;;;;-2.12;88.94;94988.31;5071062;28;20170;-74
2021/01/04 02:53:10;;;;;;;122.00;30.67;;;;;;;-2.12;88.65;94990.03;5068491;28;20651;-74
2021/01/04 02:56:03;;;;;;;167.90;34.03;;;;;;;-2.20;88.79;94992.19;5049924;28;20783;-74
2021/01/04 02:59:05;;;;;;;146.07;32.47;;;;;;;-2.16;89.04;94991.09;5051040;28;20176;-75
2021/01/04 03:01:40;;;;;;;207.23;36.53;;;;;;;-2.16;89.25;94993.66;5049836;28;20192;-74
2021/01/04 03:04:11;;;;;;;98.83;36.03;;;;;;;-2.18;89.40;94993.75;5067686;28;20195;-74
2021/01/04 03:06:44;;;;;;;64.10;28.33;;;;;;;-2.12;88.83;94997.66;5049690;28;20199;-74
2021/01/04 03:09:11;;;;;;;79.60;31.60;;;;;;;-2.09;88.90;94992.41;5049545;28;20658;-75
2021/01/04 03:11:40;;;;;;;133.10;34.73;;;;;;;-2.04;88.85;95000.59;5049721;28;20181;-74
2021/01/04 03:14:12;;;;;;;135.03;34.50;;;;;;;-2.09;89.07;94997.50;5058292;28;20189;-74
2021/01/04 03:16:43;;;;;;;104.50;32.87;;;;;;;-2.11;89.09;94995.03;5050867;28;20200;-74
2021/01/04 03:19:11;;;;;;;276.30;39.60;;;;;;;-2.11;89.07;95004.41;5054309;28;20197;-74
2021/01/04 03:21:38;;;;;;;141.57;32.57;;;;;;;-2.07;89.56;95006.69;5036752;28;20222;-74
2021/01/04 03:24:06;;;;;;;390.17;50.70;;;;;;;-2.13;89.26;95006.19;5060484;28;20184;-74
2021/01/04 03:26:39;;;;;;;234.73;42.00;;;;;;;-2.13;89.91;94996.84;5072987;28;20681;-74
2021/01/04 03:29:04;;;;;;;437.20;49.83;;;;;;;-2.15;89.69;95005.47;5072990;28;20181;-75
2021/01/04 03:31:30;;;;;;;439.33;49.30;;;;;;;-2.18;89.73;94996.28;5073461;28;20176;-74
2021/01/04 03:33:55;;;;;;;375.17;47.87;;;;;;;-2.19;89.80;95006.53;5053850;28;22000;-74
2021/01/04 03:36:21;;;;;;;320.17;44.57;;;;;;;-2.13;89.58;95004.47;5072340;28;20551;-74
2021/01/04 03:38:46;;;;;;;317.30;43.63;;;;;;;-2.10;89.37;95006.03;5073912;28;20344;-74
2021/01/04 03:41:13;;;;;;;117.13;32.77;;;;;;;-2.01;89.50;95000.44;5074171;28;20184;-74
2021/01/04 03:43:40;;;;;;;331.00;43.63;;;;;;;-2.05;89.39;94994.69;5074170;28;20176;-74
2021/01/04 03:46:05;;;;;;;129.53;33.33;;;;;;;-2.02;89.11;94999.63;5066728;28;20207;-74
2021/01/04 03:48:31;;;;;;;102.83;34.87;;;;;;;-2.04;89.25;95003.97;5072533;28;20206;-74
2021/01/04 03:50:56;;;;;;;122.73;34.93;;;;;;;-2.06;89.69;94998.13;5072676;28;20180;-74
2021/01/04 03:53:21;;;;;;;86.70;32.37;;;;;;;-2.01;89.39;94996.16;5074078;28;20197;-74
2021/01/04 03:55:47;;;;;;;128.87;36.80;;;;;;;-2.04;89.69;94993.78;5071621;28;20269;-74
2021/01/04 03:58:12;;;;;;;122.27;36.20;;;;;;;-2.03;89.45;94998.00;5055774;28;20669;-75
2021/01/04 04:00:38;;;;;;;132.97;37.03;;;;;;;-2.10;89.78;95001.78;5072409;28;20211;-74
2021/01/04 04:03:04;;;;;;;168.37;36.27;;;;;;;-2.09;89.53;95005.94;5073829;28;20213;-74
2021/01/04 04:05:31;;;;;;;145.70;35.47;;;;;;;-2.03;89.32;95003.06;5072216;28;20188;-74
2021/01/04 04:07:56;;;;;;;106.90;35.77;;;;;;;-2.08;89.73;95007.59;5052940;28;20291;-74
2021/01/04 04:10:22;;;;;;;104.20;35.70;;;;;;;-2.09;90.21;94998.31;5072230;28;20644;-74
2021/01/04 04:12:47;;;;;;;134.70;36.13;;;;;;;-2.07;89.85;95000.78;5072412;28;20808;-74
2021/01/04 04:15:15;;;;;;;111.70;34.43;;;;;;;-2.03;89.58;95002.25;5072397;28;20261;-74
2021/01/04 04:17:41;;;;;;;111.33;36.37;;;;;;;-2.07;89.64;95001.59;5065656;28;20204;-74
2021/01/04 04:20:10;;;;;;;98.37;36.80;;;;;;;-2.06;89.51;95002.41;5071687;28;20211;-74
2021/01/04 04:22:35;;;;;;;126.37;41.50;;;;;;;-2.10;89.91;95001.78;5072199;28;20729;-74
2021/01/04 04:25:05;;;;;;;102.20;34.10;;;;;;;-2.03;89.51;95003.06;5072144;28;20267;-74
2021/01/04 04:27:30;;;;;;;205.27;40.40;;;;;;;-2.05;89.39;95006.59;5069777;28;20216;-75
2021/01/04 04:29:56;;;;;;;101.50;34.47;;;;;;;-2.06;89.57;95002.41;5071710;28;20183;-74
2021/01/04 04:32:23;;;;;;;97.43;33.90;;;;;;;-2.00;89.72;95008.00;5071903;28;20538;-74
2021/01/04 04:34:48;;;;;;;100.87;36.77;;;;;;;-2.02;89.80;95004.72;5071617;28;20262;-74
2021/01/04 04:37:13;;;;;;;123.43;36.73;;;;;;;-1.93;89.81;95002.56;5071912;28;20687;-74
2021/01/04 04:39:39;;;;;;;112.77;36.23;;;;;;;-1.95;89.80;95006.91;5048251;28;20207;-74
2021/01/04 04:42:08;;;;;;;88.07;34.93;;;;;;;-1.84;89.13;95007.97;5071636;28;20203;-74
2021/01/04 04:44:41;;;;;;;114.37;36.63;;;;;;;-1.92;89.40;95004.19;5071731;28;20497;-73
2021/01/04 04:47:12;;;;;;;128.07;36.53;;;;;;;-1.96;89.76;95002.72;5071917;28;20276;-73
2021/01/04 04:50:14;;;;;;;178.80;38.10;;;;;;;-2.00;89.46;95009.72;5066369;28;20184;-74
2021/01/04 04:53:02;;;;;;;164.97;35.53;;;;;;;-2.02;89.83;95004.72;5065140;28;20240;-73
2021/01/04 04:55:52;;;;;;;84.40;34.70;;;;;;;-1.93;89.32;95007.66;5071471;28;20184;-73
2021/01/04 04:58:51;;;;;;;98.73;35.57;;;;;;;-1.97;89.87;95011.25;5072663;28;20184;-73
2021/01/04 05:01:34;;;;;;;108.73;34.90;;;;;;;-1.95;89.83;95009.44;5063926;28;20187;-73
2021/01/04 05:04:05;;;;;;;133.30;37.47;;;;;;;-1.98;89.63;95012.97;5071380;28;20180;-74
2021/01/04 05:06:42;;;;;;;124.10;35.53;;;;;;;-1.92;89.41;95014.38;5072524;28;20222;-74
2021/01/04 05:09:19;;;;;;;94.23;34.33;;;;;;;-1.92;89.32;95014.38;5072192;28;20811;-74
2021/01/04 05:11:49;;;;;;;105.43;36.27;;;;;;;-1.97;89.60;95012.06;5069209;28;20706;-73
2021/01/04 05:14:24;;;;;;;110.97;35.07;;;;;;;-1.96;89.22;95013.72;5071004;28;20187;-73
2021/01/04 05:17:18;;;;;;;98.00;33.60;;;;;;;-1.96;89.37;95015.44;5070997;28;20203;-74
2021/01/04 05:19:52;;;;;;;97.77;34.57;;;;;;;-1.93;89.74;95015.28;5070823;28;20549;-74
2021/01/04 05:22:55;;;;;;;99.47;34.23;;;;;;;-1.95;89.75;95015.34;5066373;28;20548;-74
2021/01/04 05:25:37;;;;;;;110.10;34.53;;;;;;;-1.98;89.35;95019.81;5072107;28;20198;-74
2021/01/04 05:28:34;;;;;;;91.33;33.80;;;;;;;-1.98;89.78;95015.53;5072184;28;20576;-74
2021/01/04 05:31:11;;;;;;;82.60;32.03;;;;;;;-1.91;89.17;95018.56;5068545;28;20181;-74
2021/01/04 05:33:45;;;;;;;75.03;32.70;;;;;;;-1.83;88.90;95018.94;5062526;28;20259;-74
2021/01/04 05:36:22;;;;;;;83.50;33.27;;;;;;;-1.88;88.92;95020.94;5070475;28;20213;-74
2021/01/04 05:39:03;;;;;;;88.27;33.63;;;;;;;-1.91;89.07;95014.28;5071420;28;20635;-74
2021/01/04 05:42:00;;;;;;;90.17;34.63;;;;;;;-1.87;89.04;95014.94;5068259;28;20282;-73
2021/01/04 05:44:49;;;;;;;84.53;32.17;;;;;;;-1.91;89.19;95011.75;5069246;28;20251;-74
2021/01/04 05:47:14;;;;;;;84.20;32.70;;;;;;;-1.92;89.12;95014.38;5070727;28;20292;-74
2021/01/04 05:49:45;;;;;;;89.03;32.83;;;;;;;-1.92;89.67;95009.28;5071623;28;20307;-74
2021/01/04 05:52:15;;;;;;;90.13;33.27;;;;;;;-1.89;89.03;95009.09;5068724;28;20203;-74
2021/01/04 05:54:40;;;;;;;79.83;33.50;;;;;;;-1.88;88.79;95013.28;5062948;28;20237;-74
2021/01/04 05:57:07;;;;;;;77.27;32.13;;;;;;;-1.90;89.18;95007.47;5070109;28;20283;-74
2021/01/04 05:59:33;;;;;;;80.67;32.90;;;;;;;-1.80;88.90;95021.31;5069736;28;20204;-74
2021/01/04 06:02:04;;;;;;;76.23;33.80;;;;;;;-1.86;88.39;95016.56;5070479;28;20186;-74
2021/01/04 06:04:29;;;;;;;80.87;35.30;;;;;;;-1.92;89.10;95019.47;5065843;28;20194;-74
2021/01/04 06:07:00;;;;;;;74.50;32.33;;;;;;;-1.91;88.87;95013.47;5070382;28;20208;-74
2021/01/04 06:09:26;;;;;;;64.73;30.70;;;;;;;-1.87;88.96;95018.28;5070127;28;20203;-74
2021/01/04 06:11:57;;;;;;;74.20;31.93;;;;;;;-1.86;88.63;95019.09;5070474;28;20189;-74
2021/01/04 06:14:30;;;;;;;73.53;32.57;;;;;;;-1.91;88.52;95019.38;5063360;28;20184;-74
2021/01/04 06:17:01;;;;;;;75.43;33.47;;;;;;;-1.90;88.64;95021.00;5070243;28;20196;-74
2021/01/04 06:19:27;;;;;;;76.30;32.87;;;;;;;-1.93;88.82;95021.19;5071312;28;20246;-74
2021/01/04 06:21:54;;;;;;;78.17;33.87;;;;;;;-1.89;89.08;95025.19;5070402;28;20203;-74
2021/01/04 06:24:24;;;;;;;76.53;34.43;;;;;;;-1.90;88.79;95022.75;5067589;28;20185;-73
2021/01/04 06:26:51;;;;;;;78.47;35.33;;;;;;;-1.91;88.91;95018.56;5071311;28;20196;-74
2021/01/04 06:29:29;;;;;;;73.07;33.57;;;;;;;-1.87;88.35;95020.84;5070081;28;20171;-74
2021/01/04 06:31:55;;;;;;;73.70;33.23;;;;;;;-1.87;88.45;95020.00;5070202;28;20184;-73
2021/01/04 06:34:28;;;;;;;75.07;32.23;;;;;;;-1.83;88.28;95022.31;5053068;28;20190;-73
2021/01/04 06:36:55;;;;;;;68.73;32.00;;;;;;;-1.85;87.68;95016.50;5067545;28;20303;-73
2021/01/04 06:39:30;;;;;;;71.90;31.90;;;;;;;-1.84;88.12;95014.78;5069803;28;20215;-73
2021/01/04 06:42:20;;;;;;;70.47;30.83;;;;;;;-1.84;87.66;95020.69;5070118;28;20184;-73
2021/01/04 06:45:03;;;;;;;70.20;30.87;;;;;;;-1.91;88.33;95021.09;5070119;28;20164;-73
2021/01/04 06:47:39;;;;;;;66.33;31.50;;;;;;;-1.87;87.75;95020.84;5051112;28;20214;-73
2021/01/04 06:50:18;;;;;;;70.90;32.63;;;;;;;-1.93;87.96;95012.75;5069762;28;20189;-73
2021/01/04 06:53:04;;;;;;;72.57;31.77;;;;;;;-1.96;88.10;95028.16;5073418;28;20522;-73
2021/01/04 06:55:41;;;;;;;72.87;32.83;;;;;;;-1.95;88.20;95019.63;5075153;28;20181;-73
2021/01/04 06:58:28;;;;;;;70.50;30.43;;;;;;;-1.97;88.14;95017.16;5071515;28;20187;-73
2021/01/04 07:01:30;;;;;;;68.93;32.57;;;;;;;-1.96;88.14;95021.34;5054739;28;20204;-73
2021/01/04 07:04:09;;;;;;;68.20;32.10;;;;;;;-1.97;88.19;95026.53;5054977;28;20208;-73
2021/01/04 07:07:27;;;;;;;78.03;34.13;;;;;;;-1.97;87.98;95021.44;5054906;28;20208;-73
2021/01/04 07:10:02;;;;;;;71.73;32.57;;;;;;;-1.96;88.23;95025.63;5066005;28;20639;-74
2021/01/04 07:13:00;;;;;;;73.37;32.27;;;;;;;-1.93;88.05;95020.38;5055641;28;20182;-74
2021/01/04 07:15:28;;;;;;;74.93;32.00;;;;;;;-1.95;88.31;95022.16;5055570;28;20184;-74
2021/01/04 07:18:10;;;;;;;71.27;32.37;;;;;;;-2.01;88.21;95026.72;5054540;28;20702;-74
2021/01/04 07:20:56;;;;;;;68.80;32.80;;;;;;;-1.99;88.13;95036.78;5055093;28;20227;-74
2021/01/04 07:23:48;;;;;;;74.03;33.70;;;;;;;-1.99;88.32;95034.25;5072205;28;20195;-74
2021/01/04 07:26:52;;;;;;;70.77;32.53;;;;;;;-1.93;87.74;95038.19;5055394;28;20211;-74
2021/01/04 07:29:33;;;;;;;73.03;33.13;;;;;;;-1.99;87.86;95031.72;5051906;28;20589;-74
2021/01/04 07:32:04;;;;;;;78.00;32.73;;;;;;;-1.92;87.88;95034.75;5038678;28;20192;-74
2021/01/04 07:34:35;;;;;;;73.77;32.20;;;;;;;-1.97;88.24;95031.63;5054971;28;20632;-74
2021/01/04 07:37:38;;;;;;;82.83;35.90;;;;;;;-1.97;87.98;95024.81;5072006;28;20208;-73
2021/01/04 07:40:41;;;;;;;70.70;31.73;;;;;;;-1.98;87.99;95038.44;5071088;28;20284;-74
2021/01/04 07:43:30;;;;;;;77.07;32.67;;;;;;;-2.00;87.68;95030.88;5070197;28;20191;-74
2021/01/04 07:46:33;;;;;;;80.20;33.80;;;;;;;-1.90;88.07;95030.38;5074123;28;20186;-74
2021/01/04 07:49:53;;;;;;;72.03;30.13;;;;;;;-1.89;87.15;95034.56;5072176;28;20184;-74
2021/01/04 07:52:56;;;;;;;73.70;31.70;;;;;;;-1.92;88.22;95039.81;5077666;28;20201;-74
2021/01/04 07:55:36;;;;;;;69.27;32.30;;;;;;;-1.92;87.85;95037.28;5073808;28;20529;-74
2021/01/04 07:58:43;;;;;;;75.10;34.53;;;;;;;-1.83;87.24;95039.31;5073889;28;20227;-74
2021/01/04 08:01:51;;;;;;;78.03;32.87;;;;;;;-1.85;87.34;95041.13;5064958;28;20192;-74
2021/01/04 08:04:49;;;;;;;78.13;33.50;;;;;;;-1.82;87.42;95048.59;5069792;28;20676;-74
2021/01/04 08:07:29;;;;;;;76.60;34.53;;;;;;;-1.84;87.74;95051.22;5073746;28;20295;-74
2021/01/04 08:10:04;;;;;;;72.60;33.53;;;;;;;-1.67;87.12;95046.91;5055420;28;20196;-74
2021/01/04 08:12:32;;;;;;;67.07;31.00;;;;;;;-1.63;86.64;95045.81;5070429;28;20226;-74
2021/01/04 08:15:33;;;;;;;69.40;33.30;;;;;;;-1.71;87.13;95048.81;5073244;28;20188;-74
2021/01/04 08:18:06;;;;;;;64.67;31.77;;;;;;;-1.64;86.64;95052.66;5071838;28;20207;-74
2021/01/04 08:20:33;;;;;;;67.03;32.53;;;;;;;-1.68;87.06;95048.63;5072005;28;20232;-74
2021/01/04 08:23:27;;;;;;;65.60;30.60;;;;;;;-1.68;86.77;95047.81;5066492;28;20211;-74
2021/01/04 08:26:14;;;;;;;68.30;32.40;;;;;;;-1.71;86.44;95047.06;5067314;28;20713;-74
2021/01/04 08:28:44;;;;;;;69.90;31.97;;;;;;;-1.64;87.34;95046.75;5071931;28;20652;-74
2021/01/04 08:31:40;;;;;;;65.83;32.90;;;;;;;-1.57;86.11;95059.03;5072133;28;20212;-74
2021/01/04 08:34:08;;;;;;;67.50;32.57;;;;;;;-1.60;86.34;95055.84;5069040;28;20610;-74
2021/01/04 08:36:55;;;;;;;64.43;31.00;;;;;;;-1.59;86.28;95058.31;5071751;28;20669;-74
2021/01/04 08:39:20;;;;;;;73.30;32.70;;;;;;;-1.72;86.58;95057.34;5071850;28;20204;-73
2021/01/04 08:41:50;;;;;;;65.17;32.00;;;;;;;-1.59;86.06;95053.22;5073275;28;20237;-74
2021/01/04 08:44:19;;;;;;;65.83;33.63;;;;;;;-1.62;86.61;95055.91;5052096;28;20251;-74
2021/01/04 08:46:46;;;;;;;73.27;34.40;;;;;;;-1.60;86.49;95055.84;5071527;28;20215;-74
2021/01/04 08:49:15;;;;;;;64.60;32.20;;;;;;;-1.61;86.72;95055.00;5054788;28;20175;-74
2021/01/04 08:51:41;;;;;;;71.70;34.33;;;;;;;-1.54;86.70;95058.84;5072977;28;20236;-74
2021/01/04 08:54:09;;;;;;;69.07;33.70;;;;;;;-1.55;86.22;95059.78;5067671;28;20191;-74
2021/01/04 08:56:40;;;;;;;72.50;34.50;;;;;;;-1.72;86.47;95060.72;5071290;28;20203;-73
2021/01/04 08:59:11;;;;;;;65.37;31.90;;;;;;;-1.60;86.20;95053.28;5071155;28;20648;-73
2021/01/04 09:02:01;;;;;;;67.73;32.83;;;;;;;-1.49;86.16;95056.06;5071439;28;20179;-74
2021/01/04 09:04:33;;;;;;;65.67;32.40;;;;;;;-1.52;86.21;95057.03;5069660;28;20663;-73
2021/01/04 09:07:11;;;;;;;64.13;31.27;;;;;;;-1.44;86.48;95061.69;5049099;28;20214;-73
2021/01/04 09:09:43;;;;;;;67.67;32.50;;;;;;;-1.51;86.73;95055.31;5034215;28;20747;-73
2021/01/04 09:12:14;;;;;;;69.93;32.77;;;;;;;-1.48;86.52;95060.25;5051270;28;20263;-73
2021/01/04 09:14:58;;;;;;;64.47;32.47;;;;;;;-1.45;86.43;95060.88;5051697;28;20184;-74
2021/01/04 09:17:40;;;;;;;63.67;31.23;;;;;;;-1.46;86.50;95066.88;5070683;28;20289;-74
2021/01/04 09:20:18;;;;;;;62.20;32.57;;;;;;;-1.48;86.15;95065.34;5070613;28;20239;-74
2021/01/04 09:22:47;;;;;;;60.77;32.07;;;;;;;-1.43;86.54;95060.78;5072319;28;20631;-74
2021/01/04 09:25:27;;;;;;;71.43;34.47;;;;;;;-1.40;86.58;95063.19;5070999;28;20177;-74
2021/01/04 09:27:54;;;;;;;64.73;32.47;;;;;;;-1.44;86.17;95057.44;5050623;28;20721;-75
2021/01/04 09:30:25;;;;;;;67.87;32.97;;;;;;;-1.41;85.96;95059.00;5070538;28;20180;-75
2021/01/04 09:33:02;;;;;;;65.93;32.60;;;;;;;-1.37;85.83;95057.09;5054161;28;20188;-75
2021/01/04 09:35:27;;;;;;;65.37;32.03;;;;;;;-1.45;86.05;95063.44;5054327;28;20196;-74
2021/01/04 09:38:02;;;;;;;68.80;32.73;;;;;;;-1.32;86.00;95055.94;5064923;28;20204;-74
2021/01/04 09:40:27;;;;;;;59.57;31.37;;;;;;;-1.31;86.14;95056.75;5069616;28;20233;-74
2021/01/04 09:43:06;;;;;;;59.30;30.93;;;;;;;-1.28;85.73;95052.28;5053854;28;20271;-74
2021/01/04 09:45:31;;;;;;;57.87;30.10;;;;;;;-1.18;85.62;95057.66;5067492;28;20180;-75
2021/01/04 09:48:03;;;;;;;55.47;30.33;;;;;;;-1.25;85.44;95056.38;5070580;28;20274;-73
2021/01/04 09:50:32;;;;;;;55.27;30.47;;;;;;;-1.31;85.52;95061.84;5070219;28;20591;-73
2021/01/04 09:53:17;;;;;;;55.50;29.87;;;;;;;-1.30;85.20;95058.38;5053821;28;20212;-73
2021/01/04 09:55:44;;;;;;;54.67;28.63;;;;;;;-1.24;85.09;95063.91;5053789;28;20230;-72
2021/01/04 09:58:10;;;;;;;52.43;28.80;;;;;;;-1.25;85.42;95057.19;5067851;28;20218;-73
2021/01/04 10:00:37;;;;;;;57.77;31.90;;;;;;;-1.23;85.22;95054.56;5049581;28;20908;-73
2021/01/04 10:03:14;;;;;;;51.37;28.73;;;;;;;-1.22;84.32;95046.03;5065091;28;20181;-71
2021/01/04 10:05:42;;;;;;;56.20;30.27;;;;;;;-1.21;84.71;95045.13;5071483;28;20211;-74
2021/01/04 10:08:13;;;;;;;61.00;31.30;;;;;;;-1.18;84.56;95045.75;5065178;28;20185;-74
2021/01/04 10:10:41;;;;;;;52.83;28.70;;;;;;;-1.25;84.27;95041.91;5062390;28;20211;-74
2021/01/04 10:13:09;;;;;;;59.50;30.77;;;;;;;-1.30;84.50;95038.00;5070310;28;20646;-74
2021/01/04 10:15:35;;;;;;;60.60;31.10;;;;;;;-1.20;84.84;95034.00;5070325;28;20782;-74
2021/01/04 10:18:07;;;;;;;55.63;31.63;;;;;;;-1.23;84.49;95032.47;5066852;28;20216;-74
2021/01/04 10:20:52;;;;;;;55.87;31.10;;;;;;;-1.17;84.27;95033.81;5069640;28;20227;-75
2021/01/04 10:23:32;;;;;;;55.93;30.47;;;;;;;-1.13;84.10;95032.75;5053382;28;20190;-74
2021/01/04 10:25:58;;;;;;;54.33;31.83;;;;;;;-1.15;84.48;95035.38;5072152;28;20187;-74
2021/01/04 10:28:28;;;;;;;56.50;30.93;;;;;;;-1.10;84.63;95027.47;5072952;28;20639;-74
2021/01/04 10:31:21;;;;;;;48.07;28.07;;;;;;;-1.14;83.91;95028.56;5074097;28;20187;-74
2021/01/04 10:33:46;;;;;;;54.67;29.20;;;;;;;-1.03;84.03;95031.28;5057050;28;20242;-74
2021/01/04 10:36:14;;;;;;;48.87;28.50;;;;;;;-0.95;83.33;95034.22;5073997;28;20208;-74
2021/01/04 10:38:48;;;;;;;50.30;28.27;;;;;;;-1.04;83.37;95026.28;5056734;28;20657;-73
2021/01/04 10:41:16;;;;;;;50.73;28.87;;;;;;;-0.94;83.29;95022.28;5069965;28;20195;-74
2021/01/04 10:43:42;;;;;;;52.20;28.97;;;;;;;-0.95;83.45;95024.00;5074018;28;20185;-73
2021/01/04 10:46:22;;;;;;;49.73;28.30;;;;;;;-0.92;83.54;95028.94;5073732;28;20279;-73
2021/01/04 10:49:09;;;;;;;54.43;28.33;;;;;;;-0.76;82.85;95022.91;5073308;28;20185;-72
2021/01/04 10:51:40;;;;;;;51.63;28.97;;;;;;;-0.86;82.54;95023.47;5065939;28;20279;-74
2021/01/04 10:54:18;;;;;;;46.63;27.63;;;;;;;-0.82;82.93;95024.09;5057083;28;20205;-73
2021/01/04 10:56:58;;;;;;;48.53;28.53;;;;;;;-0.91;83.00;95024.63;5073699;28;20201;-74
2021/01/04 10:59:31;;;;;;;49.27;28.33;;;;;;;-0.82;83.09;95020.72;5056857;28;20257;-73
2021/01/04 11:01:56;;;;;;;47.63;27.10;;;;;;;-0.71;83.06;95021.72;5070912;28;20180;-73
2021/01/04 11:04:22;;;;;;;51.83;31.17;;;;;;;-0.66;82.67;95029.91;5058305;28;20232;-73
2021/01/04 11:07:19;;;;;;;48.43;29.67;;;;;;;-0.68;82.27;95025.81;5056576;28;20703;-73
2021/01/04 11:09:44;;;;;;;48.37;27.23;;;;;;;-0.73;82.58;95015.88;5075907;28;20200;-72
2021/01/04 11:12:20;;;;;;;46.07;26.60;;;;;;;-0.80;83.08;95012.06;5069971;28;20203;-72
2021/01/04 11:15:01;;;;;;;51.80;27.97;;;;;;;-0.83;82.97;95004.63;5066437;28;20222;-72
2021/01/04 11:17:31;;;;;;;52.73;28.77;;;;;;;-0.72;82.41;95006.50;5073367;28;20206;-72
2021/01/04 11:20:23;;;;;;;52.30;28.63;;;;;;;-0.71;82.62;95010.69;5072992;28;20205;-74
2021/01/04 11:23:02;;;;;;;69.57;36.27;;;;;;;-0.52;81.76;95006.13;5067850;28;20207;-74
2021/01/04 11:25:28;;;;;;;53.80;29.13;;;;;;;-0.61;81.60;95009.25;5073118;28;20185;-74
2021/01/04 11:27:53;;;;;;;44.20;26.00;;;;;;;-0.75;81.66;95004.16;5073131;28;20227;-74
2021/01/04 11:30:19;;;;;;;42.97;25.20;;;;;;;-0.60;81.57;95003.22;5073754;28;20176;-73
2021/01/04 11:32:44;;;;;;;42.13;25.73;;;;;;;-0.66;81.65;95008.69;5068028;28;20753;-74
2021/01/04 11:35:10;;;;;;;47.03;25.50;;;;;;;-0.56;81.56;95004.66;5069597;28;20181;-74
2021/01/04 11:37:35;;;;;;;43.63;24.83;;;;;;;-0.51;81.18;95000.13;5073378;28;20199;-74
2021/01/04 11:40:00;;;;;;;41.77;25.63;;;;;;;-0.60;81.70;95004.06;5072626;28;20201;-74
2021/01/04 11:42:26;;;;;;;42.57;25.80;;;;;;;-0.76;81.17;95003.34;5073069;28;20173;-74
2021/01/04 11:44:51;;;;;;;41.10;24.77;;;;;;;-0.73;81.55;95008.25;5069903;28;20195;-74
2021/01/04 11:47:17;;;;;;;41.77;24.70;;;;;;;-0.78;81.23;95005.16;5074020;28;20662;-74
2021/01/04 11:49:42;;;;;;;40.20;24.47;;;;;;;-0.74;81.07;95009.16;5073894;28;20237;-74
2021/01/04 11:52:08;;;;;;;42.90;24.10;;;;;;;-0.70;81.15;95002.16;5072880;28;20176;-74
2021/01/04 11:54:33;;;;;;;42.80;25.63;;;;;;;-0.93;80.74;95001.78;5065712;28;20306;-74
2021/01/04 11:56:58;;;;;;;42.60;27.07;;;;;;;-0.97;81.73;94995.25;5061674;28;20298;-74